createdAt,value
2019-03-27T00:01:40.455Z,-1.94
2019-03-27T00:04:10.301Z,-1.94
2019-03-27T00:06:40.406Z,-1.96
2019-03-27T00:09:10.189Z,-1.97
2019-03-27T00:11:40.003Z,-1.96
2019-03-27T00:14:10.050Z,-2.00
2019-03-27T00:16:39.906Z,-2.01
2019-03-27T00:19:09.730Z,-2.02
2019-03-27T00:21:39.807Z,-2.00
2019-03-27T00:24:09.666Z,-1.93
2019-03-27T00:26:39.502Z,-1.92
2019-03-27T00:29:09.534Z,-1.88
2019-03-27T00:31:39.394Z,-1.89
2019-03-27T00:34:09.318Z,-1.85
2019-03-27T00:36:39.295Z,-1.87
2019-03-27T00:39:09.096Z,-1.86
2019-03-27T00:41:38.896Z,-1.86
2019-03-27T00:44:08.986Z,-1.89
2019-03-27T00:46:38.828Z,-1.92
2019-03-27T00:49:08.724Z,-1.90
2019-03-27T00:51:38.716Z,-1.94
2019-03-27T00:54:08.572Z,-1.96
2019-03-27T00:56:38.374Z,-1.94
2019-03-27T00:59:08.219Z,-1.89
2019-03-27T01:01:38.002Z,-1.85
2019-03-27T01:04:07.856Z,-1.80
2019-03-27T01:06:37.939Z,-1.78
2019-03-27T01:09:07.829Z,-1.83
2019-03-27T01:11:37.684Z,-1.86
2019-03-27T01:14:08.158Z,-1.87
2019-03-27T01:16:37.976Z,-1.82
2019-03-27T01:19:07.819Z,-1.75
2019-03-27T01:21:37.948Z,-1.62
2019-03-27T01:24:07.738Z,-1.50
2019-03-27T01:26:37.623Z,-1.36
2019-03-27T01:29:07.728Z,-1.25
2019-03-27T01:31:37.546Z,-1.12
2019-03-27T01:34:07.451Z,-0.97
2019-03-27T01:36:37.380Z,-0.88
2019-03-27T01:39:08.029Z,-0.77
2019-03-27T01:41:37.856Z,-0.64
2019-03-27T01:44:07.914Z,-0.48
2019-03-27T01:46:37.843Z,-0.31
2019-03-27T01:49:07.720Z,-0.15
2019-03-27T01:51:37.555Z,0.02
2019-03-27T01:54:07.406Z,0.17
2019-03-27T01:56:37.287Z,0.34
2019-03-27T01:59:07.482Z,0.47
2019-03-27T02:01:37.320Z,0.65
2019-03-27T02:04:07.187Z,0.72
2019-03-27T02:06:37.251Z,0.79
2019-03-27T02:09:07.990Z,0.87
2019-03-27T02:11:37.794Z,0.93
2019-03-27T02:14:08.005Z,1.01
2019-03-27T02:16:37.879Z,1.07
2019-03-27T02:19:07.758Z,1.12
2019-03-27T02:21:37.765Z,1.18
2019-03-27T02:24:07.574Z,1.27
2019-03-27T02:26:37.474Z,1.35
2019-03-27T02:29:07.437Z,1.41
2019-03-27T02:31:37.258Z,1.46
2019-03-27T02:34:07.113Z,1.53
2019-03-27T02:36:37.185Z,1.61
2019-03-27T02:39:07.478Z,1.69
2019-03-27T02:41:37.429Z,1.75
2019-03-27T02:44:07.527Z,1.78
2019-03-27T02:46:37.296Z,1.83
2019-03-27T02:49:07.152Z,1.89
2019-03-27T02:51:37.176Z,1.95
2019-03-27T02:54:06.953Z,1.97
2019-03-27T02:56:36.786Z,2.03
2019-03-27T02:59:06.885Z,2.09
2019-03-27T03:01:36.770Z,2.14
2019-03-27T03:04:06.659Z,2.19
2019-03-27T03:06:36.957Z,2.22
2019-03-27T03:09:07.609Z,2.28
2019-03-27T03:11:37.557Z,2.28
2019-03-27T03:14:07.650Z,2.35
2019-03-27T03:16:42.740Z,2.39
2019-03-27T03:19:09.272Z,2.43
2019-03-27T03:21:39.094Z,2.45
2019-03-27T03:24:08.877Z,2.47
2019-03-27T03:26:38.970Z,2.53
2019-03-27T03:29:08.861Z,2.47
2019-03-27T03:31:38.805Z,2.44
2019-03-27T03:34:08.741Z,2.42
2019-03-27T03:36:38.557Z,2.37
2019-03-27T03:39:08.370Z,2.29
2019-03-27T03:41:38.445Z,2.17
2019-03-27T03:44:08.333Z,2.04
2019-03-27T03:46:38.159Z,1.99
2019-03-27T03:49:08.291Z,2.01
2019-03-27T03:51:38.217Z,2.03
2019-03-27T03:54:08.417Z,2.10
2019-03-27T03:56:41.193Z,2.17
2019-03-27T03:59:13.470Z,2.38
2019-03-27T04:01:45.921Z,2.52
2019-03-27T04:04:17.455Z,2.61
2019-03-27T04:06:47.342Z,2.69
2019-03-27T04:09:17.202Z,2.74
2019-03-27T04:11:47.042Z,2.79
2019-03-27T04:14:17.146Z,2.85
2019-03-27T04:16:46.951Z,2.91
2019-03-27T04:19:16.731Z,2.94
2019-03-27T04:21:46.576Z,3.01
2019-03-27T04:24:16.441Z,3.05
2019-03-27T04:26:46.335Z,3.08
2019-03-27T04:29:16.297Z,3.10
2019-03-27T04:31:46.213Z,3.10
2019-03-27T04:34:16.072Z,3.15
2019-03-27T04:36:46.336Z,3.19
2019-03-27T04:39:16.241Z,3.28
2019-03-27T04:41:46.061Z,3.28
2019-03-27T04:44:16.250Z,3.31
2019-03-27T04:46:46.086Z,3.34
2019-03-27T04:49:15.867Z,3.34
2019-03-27T04:51:45.881Z,3.38
2019-03-27T04:54:15.685Z,3.42
2019-03-27T04:56:45.572Z,3.47
2019-03-27T04:59:15.543Z,3.47
2019-03-27T05:01:45.395Z,3.48
2019-03-27T05:04:15.309Z,3.47
2019-03-27T05:06:45.143Z,3.50
2019-03-27T05:09:14.925Z,3.59
2019-03-27T05:11:44.741Z,3.58
2019-03-27T05:14:14.643Z,3.65
2019-03-27T05:16:44.672Z,3.77
2019-03-27T05:19:14.494Z,3.80
2019-03-27T05:21:44.482Z,3.81
2019-03-27T05:24:14.352Z,3.82
2019-03-27T05:26:44.230Z,3.86
2019-03-27T05:29:14.242Z,3.91
2019-03-27T05:31:44.222Z,4.07
2019-03-27T05:34:14.013Z,4.14
2019-03-27T05:36:43.952Z,4.21
2019-03-27T05:39:14.686Z,4.29
2019-03-27T05:41:44.726Z,4.33
2019-03-27T05:44:14.589Z,4.44
2019-03-27T05:46:44.555Z,4.52
2019-03-27T05:49:14.394Z,4.64
2019-03-27T05:51:44.274Z,4.66
2019-03-27T05:54:14.245Z,4.69
2019-03-27T05:56:44.083Z,4.78
2019-03-27T05:59:13.906Z,4.87
2019-03-27T06:01:43.948Z,4.97
2019-03-27T06:04:13.916Z,5.08
2019-03-27T06:06:43.871Z,5.14
2019-03-27T06:09:13.834Z,5.25
2019-03-27T06:11:43.698Z,5.41
2019-03-27T06:14:13.592Z,5.54
2019-03-27T06:16:43.480Z,5.65
2019-03-27T06:19:13.319Z,5.74
2019-03-27T06:21:43.165Z,5.74
2019-03-27T06:24:13.161Z,5.66
2019-03-27T06:26:42.993Z,5.65
2019-03-27T06:29:15.729Z,5.77
2019-03-27T06:31:44.688Z,5.94
2019-03-27T06:34:14.525Z,6.01
2019-03-27T06:36:44.338Z,6.11
2019-03-27T06:39:14.367Z,6.23
2019-03-27T06:41:44.183Z,6.33
2019-03-27T06:44:14.123Z,6.49
2019-03-27T06:46:44.146Z,6.65
2019-03-27T06:49:14.018Z,6.83
2019-03-27T06:51:44.018Z,6.86
2019-03-27T06:54:14.405Z,7.02
2019-03-27T06:56:44.378Z,7.20
2019-03-27T06:59:14.237Z,7.30
2019-03-27T07:01:44.305Z,7.51
2019-03-27T07:04:14.142Z,7.69
2019-03-27T07:06:44.065Z,7.83
2019-03-27T07:09:14.209Z,8.12
2019-03-27T07:11:44.027Z,8.20
2019-03-27T07:14:13.894Z,8.36
2019-03-27T07:16:44.055Z,8.50
2019-03-27T07:19:13.933Z,8.55
2019-03-27T07:21:43.866Z,8.48
2019-03-27T07:24:13.780Z,8.49
2019-03-27T07:26:43.562Z,8.40
2019-03-27T07:29:13.400Z,8.26
2019-03-27T07:31:43.244Z,8.26
2019-03-27T07:34:13.087Z,8.22
2019-03-27T07:36:42.988Z,8.20
2019-03-27T07:39:13.031Z,8.41
2019-03-27T07:41:42.866Z,8.44
2019-03-27T07:44:12.777Z,8.47
2019-03-27T07:46:42.745Z,8.59
2019-03-27T07:49:12.526Z,8.60
2019-03-27T07:51:42.351Z,8.71
2019-03-27T07:54:12.330Z,8.70
2019-03-27T07:56:42.199Z,8.65
2019-03-27T07:59:12.129Z,8.73
2019-03-27T08:01:42.188Z,8.77
2019-03-27T08:04:14.386Z,8.71
2019-03-27T08:06:43.765Z,8.88
2019-03-27T08:09:13.583Z,8.85
2019-03-27T08:11:43.349Z,8.98
2019-03-27T08:14:13.411Z,8.96
2019-03-27T08:16:43.291Z,9.10
2019-03-27T08:19:13.152Z,9.10
2019-03-27T08:21:43.207Z,9.20
2019-03-27T08:24:13.072Z,9.22
2019-03-27T08:26:42.920Z,9.33
2019-03-27T08:29:12.963Z,9.26
2019-03-27T08:31:42.780Z,9.29
2019-03-27T08:34:12.621Z,9.11
2019-03-27T08:36:42.698Z,9.27
2019-03-27T08:39:12.522Z,9.62
2019-03-27T08:41:42.274Z,9.60
2019-03-27T08:44:12.223Z,9.67
2019-03-27T08:46:42.150Z,9.94
2019-03-27T08:49:21.765Z,10.22
2019-03-27T08:51:43.676Z,10.26
2019-03-27T08:54:13.497Z,10.20
2019-03-27T08:56:43.288Z,10.31
2019-03-27T08:59:13.338Z,10.38
2019-03-27T09:01:43.158Z,10.48
2019-03-27T09:04:12.953Z,11.04
2019-03-27T09:06:43.054Z,11.01
2019-03-27T09:09:12.911Z,10.90
2019-03-27T09:11:42.751Z,12.23
2019-03-27T09:14:12.852Z,12.36
2019-03-27T09:16:43.267Z,13.06
2019-03-27T09:19:13.041Z,12.76
2019-03-27T09:21:43.126Z,13.99
2019-03-27T09:24:13.172Z,15.15
2019-03-27T09:26:43.256Z,15.44
2019-03-27T09:29:13.164Z,15.97
2019-03-27T09:31:45.121Z,15.27
2019-03-27T09:34:17.588Z,15.09
2019-03-27T09:36:46.330Z,13.70
2019-03-27T09:39:16.362Z,13.83
2019-03-27T09:41:46.197Z,13.65
2019-03-27T09:44:16.030Z,13.71
2019-03-27T09:46:45.874Z,13.79
2019-03-27T09:49:15.735Z,14.04
2019-03-27T09:51:45.736Z,15.25
2019-03-27T09:54:15.518Z,15.39
2019-03-27T09:56:45.359Z,15.11
2019-03-27T09:59:15.307Z,14.19
2019-03-27T10:01:45.279Z,14.46
2019-03-27T10:04:15.099Z,14.28
2019-03-27T10:06:46.158Z,15.06
2019-03-27T10:09:16.119Z,14.06
2019-03-27T10:11:45.953Z,13.18
2019-03-27T10:14:15.893Z,12.62
2019-03-27T10:16:45.723Z,12.17
2019-03-27T10:19:15.544Z,11.94
2019-03-27T10:21:45.559Z,11.96
2019-03-27T10:24:15.398Z,12.71
2019-03-27T10:26:45.179Z,14.08
2019-03-27T10:29:15.073Z,15.14
2019-03-27T10:31:44.883Z,14.93
2019-03-27T10:34:14.681Z,15.95
2019-03-27T10:36:44.670Z,15.34
2019-03-27T10:39:14.618Z,15.33
2019-03-27T10:41:44.523Z,14.71
2019-03-27T10:44:17.433Z,13.26
2019-03-27T10:46:46.123Z,12.57
2019-03-27T10:49:16.013Z,12.03
2019-03-27T10:51:45.876Z,11.83
2019-03-27T10:54:15.721Z,11.39
2019-03-27T10:56:45.681Z,11.51
2019-03-27T10:59:15.601Z,11.42
2019-03-27T11:01:45.650Z,11.14
2019-03-27T11:04:15.541Z,10.86
2019-03-27T11:06:45.409Z,11.09
2019-03-27T11:09:15.189Z,11.28
2019-03-27T11:11:45.073Z,11.92
2019-03-27T11:14:14.967Z,12.41
2019-03-27T11:16:44.756Z,12.31
2019-03-27T11:19:14.552Z,12.12
2019-03-27T11:21:44.439Z,11.72
2019-03-27T11:24:14.241Z,11.64
2019-03-27T11:26:44.061Z,11.81
2019-03-27T11:29:14.057Z,11.49
2019-03-27T11:31:43.922Z,11.56
2019-03-27T11:34:13.922Z,11.76
2019-03-27T11:36:43.765Z,11.64
2019-03-27T11:39:13.568Z,11.97
2019-03-27T11:41:43.423Z,12.09
2019-03-27T11:44:13.300Z,12.09
2019-03-27T11:46:43.155Z,12.23
2019-03-27T11:49:13.183Z,12.41
2019-03-27T11:51:43.090Z,12.35
2019-03-27T11:54:12.976Z,12.37
2019-03-27T11:56:42.992Z,12.04
2019-03-27T11:59:12.867Z,11.84
2019-03-27T12:01:43.891Z,11.47
2019-03-27T12:04:13.875Z,11.24
2019-03-27T12:06:43.801Z,11.17
2019-03-27T12:09:13.673Z,11.06
2019-03-27T12:11:43.515Z,11.06
2019-03-27T12:14:13.442Z,11.01
2019-03-27T12:16:43.238Z,10.85
2019-03-27T12:19:13.165Z,10.80
2019-03-27T12:21:42.979Z,10.85
2019-03-27T12:24:12.825Z,10.79
2019-03-27T12:26:42.720Z,10.77
2019-03-27T12:29:12.586Z,10.61
2019-03-27T12:31:42.374Z,10.69
2019-03-27T12:34:12.276Z,10.80
2019-03-27T12:36:42.166Z,10.75
2019-03-27T12:39:12.012Z,10.87
2019-03-27T12:41:42.157Z,10.70
2019-03-27T12:44:12.074Z,10.94
2019-03-27T12:46:41.996Z,10.91
2019-03-27T12:49:11.979Z,11.01
2019-03-27T12:51:41.812Z,11.00
2019-03-27T12:54:11.648Z,10.93
2019-03-27T12:56:41.688Z,11.02
2019-03-27T12:59:11.590Z,10.90
2019-03-27T13:01:41.420Z,10.70
2019-03-27T13:04:11.337Z,10.59
2019-03-27T13:06:41.237Z,10.51
2019-03-27T13:09:11.017Z,10.33
2019-03-27T13:11:40.989Z,10.03
2019-03-27T13:14:10.936Z,9.80
2019-03-27T13:16:40.801Z,9.70
2019-03-27T13:19:10.803Z,9.67
2019-03-27T13:25:12.636Z,9.89
2019-03-27T13:27:42.717Z,10.16
2019-03-27T13:30:13.127Z,10.41
2019-03-27T13:32:42.972Z,10.58
2019-03-27T13:35:13.957Z,10.71
2019-03-27T13:37:43.766Z,10.49
2019-03-27T13:40:14.120Z,10.38
2019-03-27T13:42:44.198Z,10.30
2019-03-27T13:45:14.587Z,10.12
2019-03-27T13:47:44.428Z,10.19
2019-03-27T13:50:15.389Z,10.36
2019-03-27T13:52:45.236Z,10.35
2019-03-27T13:55:15.564Z,10.28
2019-03-27T13:57:45.406Z,10.19
2019-03-27T14:00:16.911Z,10.24
2019-03-27T14:02:46.954Z,10.19
2019-03-27T14:05:17.016Z,10.03
2019-03-27T14:07:46.783Z,9.98
2019-03-27T14:10:17.178Z,9.97
2019-03-27T14:12:47.034Z,10.18
2019-03-27T14:15:17.327Z,10.19
2019-03-27T14:17:47.322Z,10.21
2019-03-27T14:20:18.129Z,10.59
2019-03-27T14:22:48.481Z,10.68
2019-03-27T14:25:21.937Z,10.81
2019-03-27T14:27:50.883Z,10.52
2019-03-27T14:30:52.051Z,10.35
2019-03-27T14:33:22.816Z,10.33
2019-03-27T14:35:52.955Z,10.42
2019-03-27T14:38:23.305Z,10.59
2019-03-27T14:40:53.218Z,10.61
2019-03-27T14:43:23.078Z,10.55
2019-03-27T14:45:52.970Z,10.69
2019-03-27T14:48:22.811Z,10.72
2019-03-27T14:50:52.718Z,10.64
2019-03-27T14:53:22.656Z,10.37
2019-03-27T14:55:52.653Z,10.21
2019-03-27T14:58:22.524Z,10.17
2019-03-27T15:00:52.543Z,10.10
2019-03-27T15:03:22.317Z,9.98
2019-03-27T15:05:52.126Z,10.00
2019-03-27T15:08:22.019Z,9.91
2019-03-27T15:10:52.279Z,9.95
2019-03-27T15:13:22.573Z,10.02
2019-03-27T15:15:52.411Z,9.91
2019-03-27T15:18:22.408Z,9.92
2019-03-27T15:20:52.289Z,9.96
2019-03-27T15:23:22.167Z,10.03
2019-03-27T15:25:52.230Z,9.91
2019-03-27T15:28:22.101Z,9.78
2019-03-27T15:30:52.004Z,9.74
2019-03-27T15:33:21.838Z,9.78
2019-03-27T15:35:51.660Z,9.80
2019-03-27T15:38:21.488Z,9.88
2019-03-27T15:40:51.471Z,9.86
2019-03-27T15:43:21.324Z,9.89
2019-03-27T15:45:51.333Z,9.89
2019-03-27T15:48:21.327Z,9.86
2019-03-27T15:50:58.475Z,9.94
2019-03-27T15:53:23.288Z,9.82
2019-03-27T15:55:53.234Z,9.83
2019-03-27T15:58:23.117Z,9.86
2019-03-27T16:00:53.031Z,9.87
2019-03-27T16:03:22.920Z,9.73
2019-03-27T16:05:52.945Z,9.78
2019-03-27T16:08:23.322Z,9.77
2019-03-27T16:10:53.137Z,9.72
2019-03-27T16:13:22.966Z,9.59
2019-03-27T16:15:52.930Z,9.60
2019-03-27T16:18:22.741Z,9.56
2019-03-27T16:20:52.559Z,9.46
2019-03-27T16:23:22.634Z,9.47
2019-03-27T16:25:52.537Z,9.48
2019-03-27T16:28:22.381Z,9.47
2019-03-27T16:30:52.390Z,9.52
2019-03-27T16:33:22.208Z,9.47
2019-03-27T16:35:52.074Z,9.55
2019-03-27T16:38:22.057Z,9.48
2019-03-27T16:40:51.846Z,9.40
2019-03-27T16:43:21.638Z,9.37
2019-03-27T16:45:52.194Z,9.43
2019-03-27T16:48:22.131Z,9.42
2019-03-27T16:50:52.232Z,9.38
2019-03-27T16:53:22.484Z,9.37
2019-03-27T16:55:52.484Z,9.32
2019-03-27T16:58:22.353Z,9.21
2019-03-27T17:00:52.451Z,9.25
2019-03-27T17:03:22.250Z,9.32
2019-03-27T17:05:54.146Z,9.23
2019-03-27T17:08:24.145Z,9.20
2019-03-27T17:10:54.000Z,9.15
2019-03-27T17:13:24.304Z,9.05
2019-03-27T17:15:54.413Z,9.08
2019-03-27T17:18:24.278Z,9.18
2019-03-27T17:20:54.098Z,9.11
2019-03-27T17:23:24.273Z,9.03
2019-03-27T17:25:54.213Z,9.04
2019-03-27T17:28:24.085Z,9.07
2019-03-27T17:30:54.155Z,8.93
2019-03-27T17:33:23.997Z,8.85
2019-03-27T17:35:53.879Z,8.80
2019-03-27T17:38:23.908Z,8.82
2019-03-27T17:40:53.805Z,8.73
2019-03-27T17:43:23.655Z,8.68
2019-03-27T17:45:53.719Z,8.71
2019-03-27T17:48:23.517Z,8.68
2019-03-27T17:50:53.464Z,8.56
2019-03-27T17:53:31.676Z,8.52
2019-03-27T17:55:55.352Z,8.49
2019-03-27T17:58:25.532Z,8.34
2019-03-27T18:00:58.297Z,8.19
2019-03-27T18:03:28.300Z,7.85
2019-03-27T18:05:58.175Z,7.58
2019-03-27T18:08:28.046Z,7.27
2019-03-27T18:10:58.067Z,7.05
2019-03-27T18:13:27.872Z,6.84
2019-03-27T18:15:57.854Z,6.59
2019-03-27T18:18:27.716Z,6.35
2019-03-27T18:20:57.668Z,6.13
2019-03-27T18:23:27.660Z,5.96
2019-03-27T18:25:57.714Z,5.79
2019-03-27T18:28:27.857Z,5.61
2019-03-27T18:30:58.020Z,5.48
2019-03-27T18:33:27.819Z,5.36
2019-03-27T18:35:57.747Z,5.26
2019-03-27T18:38:27.583Z,5.12
2019-03-27T18:40:57.492Z,5.03
2019-03-27T18:43:27.443Z,4.92
2019-03-27T18:45:57.727Z,4.80
2019-03-27T18:48:27.555Z,4.72
2019-03-27T18:50:57.337Z,4.63
2019-03-27T18:53:27.259Z,4.58
2019-03-27T18:55:57.073Z,4.52
2019-03-27T18:58:26.940Z,4.43
2019-03-27T19:00:56.858Z,4.36
2019-03-27T19:03:26.703Z,4.28
2019-03-27T19:05:56.590Z,4.24
2019-03-27T19:08:26.598Z,4.17
2019-03-27T19:10:56.473Z,4.12
2019-03-27T19:13:26.294Z,4.07
2019-03-27T19:15:56.419Z,4.03
2019-03-27T19:18:26.294Z,4.01
2019-03-27T19:20:56.145Z,4.01
2019-03-27T19:23:25.988Z,4.05
2019-03-27T19:25:55.802Z,4.03
2019-03-27T19:28:25.787Z,4.02
2019-03-27T19:30:55.750Z,4.02
2019-03-27T19:33:25.591Z,4.00
2019-03-27T19:35:55.443Z,3.98
2019-03-27T19:38:25.312Z,3.91
2019-03-27T19:40:55.092Z,3.84
2019-03-27T19:43:24.940Z,3.73
2019-03-27T19:45:57.348Z,3.67
2019-03-27T19:48:26.339Z,3.61
2019-03-27T19:50:56.246Z,3.53
2019-03-27T19:53:26.231Z,3.45
2019-03-27T19:55:56.115Z,3.39
2019-03-27T19:58:26.279Z,3.38
2019-03-27T20:00:56.138Z,3.33
2019-03-27T20:03:25.973Z,3.30
2019-03-27T20:05:55.843Z,3.26
2019-03-27T20:08:25.732Z,3.26
2019-03-27T20:10:55.645Z,3.21
2019-03-27T20:13:25.522Z,3.15
2019-03-27T20:15:55.431Z,3.12
2019-03-27T20:18:25.293Z,3.11
2019-03-27T20:20:55.161Z,3.09
2019-03-27T20:23:25.066Z,3.05
2019-03-27T20:25:54.969Z,3.10
2019-03-27T20:28:24.959Z,3.13
2019-03-27T20:30:55.124Z,3.20
2019-03-27T20:33:25.007Z,3.18
2019-03-27T20:35:54.814Z,3.21
2019-03-27T20:38:24.634Z,3.21
2019-03-27T20:40:54.664Z,3.18
2019-03-27T20:43:24.614Z,3.10
2019-03-27T20:45:54.575Z,3.01
2019-03-27T20:48:24.394Z,3.02
2019-03-27T20:50:54.378Z,3.02
2019-03-27T20:53:24.245Z,2.95
2019-03-27T20:55:54.229Z,2.88
2019-03-27T20:58:24.256Z,2.82
2019-03-27T21:00:54.215Z,2.76
2019-03-27T21:03:24.114Z,2.66
2019-03-27T21:05:54.103Z,2.59
2019-03-27T21:08:24.020Z,2.55
2019-03-27T21:10:55.989Z,2.51
2019-03-27T21:13:26.433Z,2.47
2019-03-27T21:15:56.313Z,2.44
2019-03-27T21:18:26.298Z,2.41
2019-03-27T21:20:56.135Z,2.37
2019-03-27T21:23:26.075Z,2.34
2019-03-27T21:25:56.484Z,2.31
2019-03-27T21:28:26.314Z,2.27
2019-03-27T21:30:56.202Z,2.23
2019-03-27T21:33:26.299Z,2.12
2019-03-27T21:35:56.107Z,2.18
2019-03-27T21:38:25.991Z,2.27
2019-03-27T21:40:56.005Z,2.25
2019-03-27T21:43:25.872Z,2.26
2019-03-27T21:45:55.775Z,2.33
2019-03-27T21:48:25.928Z,2.39
2019-03-27T21:50:55.740Z,2.42
2019-03-27T21:53:25.608Z,2.47
2019-03-27T21:55:55.459Z,2.53
2019-03-27T21:58:25.287Z,2.56
2019-03-27T22:00:55.164Z,2.51
2019-03-27T22:03:25.134Z,2.47
2019-03-27T22:05:55.035Z,2.46
2019-03-27T22:08:24.848Z,2.41
2019-03-27T22:10:54.878Z,2.38
2019-03-27T22:13:24.742Z,2.31
2019-03-27T22:15:54.665Z,2.33
2019-03-27T22:18:24.707Z,2.32
2019-03-27T22:20:54.520Z,2.27
2019-03-27T22:23:24.336Z,2.18
2019-03-27T22:25:54.154Z,2.16
2019-03-27T22:28:24.013Z,2.25
2019-03-27T22:30:53.955Z,2.29
2019-03-27T22:33:23.898Z,2.28
2019-03-27T22:35:53.791Z,2.29
2019-03-27T22:38:23.641Z,2.26
2019-03-27T22:40:53.618Z,2.18
2019-03-27T22:43:23.460Z,2.16
2019-03-27T22:45:53.296Z,2.14
2019-03-27T22:48:23.147Z,2.14
2019-03-27T22:50:52.990Z,2.10
2019-03-27T22:53:22.884Z,2.05
2019-03-27T22:55:52.842Z,2.05
2019-03-27T22:58:22.714Z,2.04
2019-03-27T23:00:54.893Z,2.07
2019-03-27T23:03:24.721Z,2.06
2019-03-27T23:05:54.565Z,2.04
2019-03-27T23:08:24.672Z,1.99
2019-03-27T23:10:54.507Z,1.95
2019-03-27T23:13:24.346Z,1.87
2019-03-27T23:15:54.378Z,1.81
2019-03-27T23:18:24.225Z,1.88
2019-03-27T23:20:54.098Z,1.94
2019-03-27T23:23:24.160Z,2.03
2019-03-27T23:26:02.891Z,2.13
2019-03-27T23:28:25.991Z,2.29
2019-03-27T23:30:55.834Z,2.25
2019-03-27T23:33:25.651Z,2.22
2019-03-27T23:35:55.660Z,2.24
2019-03-27T23:38:25.467Z,2.25
2019-03-27T23:40:55.312Z,2.30
2019-03-27T23:43:25.268Z,2.35
2019-03-27T23:45:56.107Z,2.41
2019-03-27T23:48:26.128Z,2.44
2019-03-27T23:50:55.973Z,2.46
2019-03-27T23:53:25.832Z,2.47
2019-03-27T23:55:55.810Z,2.53
2019-03-27T23:58:25.686Z,2.58
